Aviation Digital Data Service (ADDS)

Output produced by METARs form (2346 UTC 29 September 2016)
found at http://aviationweather.gov/adds/metars/
 
KBFD 292336Z 3000/3024 12010G18KT P6SM VCSH BKN005 OVC009 
     FM301500 12012G22KT P6SM VCSH SCT009 OVC012